sensor_id;sensor_type;location;lat;lon;timestamp;P1;durP1;ratioP1;P2;durP2;ratioP2
47764;SDS011;33529;49.242;8.670;2023-08-17T00:02:19;3.90;;;2.50;;
47764;SDS011;33529;49.242;8.670;2023-08-17T00:04:46;4.32;;;2.75;;
47764;SDS011;33529;49.242;8.670;2023-08-17T00:07:13;10.18;;;3.10;;
47764;SDS011;33529;49.242;8.670;2023-08-17T00:09:42;6.28;;;2.53;;
47764;SDS011;33529;49.242;8.670;2023-08-17T00:12:09;5.07;;;3.10;;
47764;SDS011;33529;49.242;8.670;2023-08-17T00:14:36;5.38;;;3.28;;
47764;SDS011;33529;49.242;8.670;2023-08-17T00:17:03;4.28;;;2.95;;
47764;SDS011;33529;49.242;8.670;2023-08-17T00:19:29;6.78;;;3.30;;
47764;SDS011;33529;49.242;8.670;2023-08-17T00:21:56;6.18;;;3.50;;
47764;SDS011;33529;49.242;8.670;2023-08-17T00:24:23;5.40;;;3.30;;
47764;SDS011;33529;49.242;8.670;2023-08-17T00:26:50;4.70;;;2.85;;
47764;SDS011;33529;49.242;8.670;2023-08-17T00:29:17;8.95;;;3.40;;
47764;SDS011;33529;49.242;8.670;2023-08-17T00:31:43;5.80;;;2.85;;
47764;SDS011;33529;49.242;8.670;2023-08-17T00:34:12;7.13;;;3.58;;
47764;SDS011;33529;49.242;8.670;2023-08-17T00:36:38;5.60;;;3.65;;
47764;SDS011;33529;49.242;8.670;2023-08-17T00:39:06;5.68;;;3.50;;
47764;SDS011;33529;49.242;8.670;2023-08-17T00:41:33;6.07;;;3.38;;
47764;SDS011;33529;49.242;8.670;2023-08-17T00:44:00;6.57;;;4.28;;
47764;SDS011;33529;49.242;8.670;2023-08-17T00:46:27;7.68;;;4.05;;
47764;SDS011;33529;49.242;8.670;2023-08-17T00:48:55;7.07;;;4.43;;
47764;SDS011;33529;49.242;8.670;2023-08-17T00:51:24;7.57;;;4.30;;
47764;SDS011;33529;49.242;8.670;2023-08-17T00:53:52;6.72;;;4.65;;
47764;SDS011;33529;49.242;8.670;2023-08-17T00:56:22;9.00;;;8.00;;
47764;SDS011;33529;49.242;8.670;2023-08-17T00:58:52;6.47;;;4.18;;
47764;SDS011;33529;49.242;8.670;2023-08-17T01:01:20;4.53;;;3.53;;
47764;SDS011;33529;49.242;8.670;2023-08-17T01:03:48;9.68;;;4.75;;
47764;SDS011;33529;49.242;8.670;2023-08-17T01:06:15;6.30;;;4.15;;
47764;SDS011;33529;49.242;8.670;2023-08-17T01:08:42;5.80;;;3.95;;
47764;SDS011;33529;49.242;8.670;2023-08-17T01:11:18;5.93;;;4.03;;
47764;SDS011;33529;49.242;8.670;2023-08-17T01:14:10;6.65;;;4.43;;
47764;SDS011;33529;49.242;8.670;2023-08-17T01:17:12;7.25;;;5.38;;
47764;SDS011;33529;49.242;8.670;2023-08-17T01:19:35;8.38;;;5.47;;
47764;SDS011;33529;49.242;8.670;2023-08-17T01:22:04;8.02;;;5.70;;
47764;SDS011;33529;49.242;8.670;2023-08-17T01:24:32;8.95;;;5.65;;
47764;SDS011;33529;49.242;8.670;2023-08-17T01:27:02;7.55;;;5.78;;
47764;SDS011;33529;49.242;8.670;2023-08-17T01:29:29;6.43;;;4.82;;
47764;SDS011;33529;49.242;8.670;2023-08-17T01:32:16;10.23;;;5.28;;
47764;SDS011;33529;49.242;8.670;2023-08-17T01:34:57;7.30;;;5.05;;
47764;SDS011;33529;49.242;8.670;2023-08-17T01:37:31;7.85;;;4.75;;
47764;SDS011;33529;49.242;8.670;2023-08-17T01:40:00;7.05;;;4.53;;
47764;SDS011;33529;49.242;8.670;2023-08-17T01:42:27;7.25;;;4.15;;
47764;SDS011;33529;49.242;8.670;2023-08-17T01:44:57;5.78;;;4.22;;
47764;SDS011;33529;49.242;8.670;2023-08-17T01:47:24;7.03;;;4.07;;
47764;SDS011;33529;49.242;8.670;2023-08-17T01:49:53;4.63;;;3.78;;
47764;SDS011;33529;49.242;8.670;2023-08-17T01:52:20;5.07;;;3.80;;
47764;SDS011;33529;49.242;8.670;2023-08-17T01:54:47;6.68;;;4.70;;
47764;SDS011;33529;49.242;8.670;2023-08-17T01:59:45;7.10;;;4.13;;
47764;SDS011;33529;49.242;8.670;2023-08-17T02:02:15;4.93;;;3.70;;
47764;SDS011;33529;49.242;8.670;2023-08-17T02:04:41;6.25;;;3.63;;
47764;SDS011;33529;49.242;8.670;2023-08-17T02:07:09;5.50;;;3.97;;
47764;SDS011;33529;49.242;8.670;2023-08-17T02:09:36;6.47;;;3.25;;
47764;SDS011;33529;49.242;8.670;2023-08-17T02:12:04;4.20;;;3.45;;
47764;SDS011;33529;49.242;8.670;2023-08-17T02:14:32;6.32;;;3.50;;
47764;SDS011;33529;49.242;8.670;2023-08-17T02:16:59;7.03;;;3.70;;
47764;SDS011;33529;49.242;8.670;2023-08-17T02:19:26;5.97;;;3.78;;
47764;SDS011;33529;49.242;8.670;2023-08-17T02:21:53;6.97;;;3.60;;
47764;SDS011;33529;49.242;8.670;2023-08-17T02:24:20;5.05;;;3.80;;
47764;SDS011;33529;49.242;8.670;2023-08-17T02:26:50;5.32;;;3.70;;
47764;SDS011;33529;49.242;8.670;2023-08-17T02:29:17;6.63;;;3.40;;
47764;SDS011;33529;49.242;8.670;2023-08-17T02:31:44;6.25;;;4.03;;
47764;SDS011;33529;49.242;8.670;2023-08-17T02:34:10;6.93;;;3.15;;
47764;SDS011;33529;49.242;8.670;2023-08-17T02:36:37;4.88;;;3.08;;
47764;SDS011;33529;49.242;8.670;2023-08-17T02:39:04;4.85;;;3.15;;
47764;SDS011;33529;49.242;8.670;2023-08-17T02:41:31;5.68;;;3.45;;
47764;SDS011;33529;49.242;8.670;2023-08-17T02:43:58;4.28;;;3.13;;
47764;SDS011;33529;49.242;8.670;2023-08-17T02:46:25;5.22;;;3.13;;
47764;SDS011;33529;49.242;8.670;2023-08-17T02:48:52;3.70;;;2.72;;
47764;SDS011;33529;49.242;8.670;2023-08-17T02:51:19;5.65;;;3.13;;
47764;SDS011;33529;49.242;8.670;2023-08-17T02:53:46;5.93;;;3.20;;
47764;SDS011;33529;49.242;8.670;2023-08-17T02:56:13;5.32;;;3.30;;
47764;SDS011;33529;49.242;8.670;2023-08-17T02:58:40;5.32;;;3.40;;
47764;SDS011;33529;49.242;8.670;2023-08-17T03:01:07;6.68;;;3.25;;
47764;SDS011;33529;49.242;8.670;2023-08-17T03:03:34;5.80;;;2.72;;
47764;SDS011;33529;49.242;8.670;2023-08-17T03:06:02;4.38;;;2.72;;
47764;SDS011;33529;49.242;8.670;2023-08-17T03:08:29;4.00;;;2.90;;
47764;SDS011;33529;49.242;8.670;2023-08-17T03:10:58;5.25;;;3.28;;
47764;SDS011;33529;49.242;8.670;2023-08-17T03:13:25;4.63;;;2.78;;
47764;SDS011;33529;49.242;8.670;2023-08-17T03:15:52;4.82;;;2.63;;
47764;SDS011;33529;49.242;8.670;2023-08-17T03:18:22;5.00;;;2.72;;
47764;SDS011;33529;49.242;8.670;2023-08-17T03:20:49;4.63;;;3.00;;
47764;SDS011;33529;49.242;8.670;2023-08-17T03:23:16;5.57;;;2.90;;
47764;SDS011;33529;49.242;8.670;2023-08-17T03:25:43;6.32;;;3.40;;
47764;SDS011;33529;49.242;8.670;2023-08-17T03:28:12;5.47;;;2.90;;
47764;SDS011;33529;49.242;8.670;2023-08-17T03:30:38;4.32;;;2.70;;
47764;SDS011;33529;49.242;8.670;2023-08-17T03:33:05;4.20;;;2.70;;
47764;SDS011;33529;49.242;8.670;2023-08-17T03:35:32;12.55;;;3.65;;
47764;SDS011;33529;49.242;8.670;2023-08-17T03:37:59;5.72;;;3.05;;
47764;SDS011;33529;49.242;8.670;2023-08-17T03:40:26;3.38;;;2.50;;
47764;SDS011;33529;49.242;8.670;2023-08-17T03:42:53;6.00;;;3.20;;
47764;SDS011;33529;49.242;8.670;2023-08-17T03:45:19;5.20;;;2.70;;
47764;SDS011;33529;49.242;8.670;2023-08-17T03:47:49;4.65;;;3.53;;
47764;SDS011;33529;49.242;8.670;2023-08-17T03:50:16;4.47;;;3.17;;
47764;SDS011;33529;49.242;8.670;2023-08-17T03:52:43;6.22;;;3.13;;
47764;SDS011;33529;49.242;8.670;2023-08-17T03:55:10;6.72;;;3.47;;
47764;SDS011;33529;49.242;8.670;2023-08-17T03:57:37;4.43;;;3.20;;
47764;SDS011;33529;49.242;8.670;2023-08-17T04:00:06;5.75;;;3.08;;
47764;SDS011;33529;49.242;8.670;2023-08-17T04:02:38;7.60;;;3.40;;
47764;SDS011;33529;49.242;8.670;2023-08-17T04:05:06;6.57;;;3.55;;
47764;SDS011;33529;49.242;8.670;2023-08-17T04:07:33;5.97;;;3.03;;
47764;SDS011;33529;49.242;8.670;2023-08-17T04:10:02;5.45;;;3.58;;
47764;SDS011;33529;49.242;8.670;2023-08-17T04:12:31;4.25;;;3.13;;
47764;SDS011;33529;49.242;8.670;2023-08-17T04:14:58;8.07;;;3.28;;
47764;SDS011;33529;49.242;8.670;2023-08-17T04:17:25;4.35;;;2.72;;
47764;SDS011;33529;49.242;8.670;2023-08-17T04:19:52;4.30;;;2.70;;
47764;SDS011;33529;49.242;8.670;2023-08-17T04:22:20;5.15;;;3.13;;
47764;SDS011;33529;49.242;8.670;2023-08-17T04:24:46;4.53;;;3.80;;
47764;SDS011;33529;49.242;8.670;2023-08-17T04:27:13;4.38;;;2.63;;
47764;SDS011;33529;49.242;8.670;2023-08-17T04:29:41;4.75;;;3.10;;
47764;SDS011;33529;49.242;8.670;2023-08-17T04:32:13;4.10;;;2.95;;
47764;SDS011;33529;49.242;8.670;2023-08-17T04:34:45;5.53;;;2.90;;
47764;SDS011;33529;49.242;8.670;2023-08-17T04:37:14;5.95;;;3.28;;
47764;SDS011;33529;49.242;8.670;2023-08-17T04:39:41;5.68;;;2.90;;
47764;SDS011;33529;49.242;8.670;2023-08-17T04:42:15;4.43;;;2.47;;
47764;SDS011;33529;49.242;8.670;2023-08-17T04:44:43;3.53;;;2.42;;
47764;SDS011;33529;49.242;8.670;2023-08-17T04:47:10;4.78;;;3.05;;
47764;SDS011;33529;49.242;8.670;2023-08-17T04:49:37;4.97;;;3.33;;
47764;SDS011;33529;49.242;8.670;2023-08-17T04:52:04;5.40;;;3.40;;
47764;SDS011;33529;49.242;8.670;2023-08-17T04:54:32;5.22;;;3.13;;
47764;SDS011;33529;49.242;8.670;2023-08-17T04:56:59;3.97;;;2.90;;
47764;SDS011;33529;49.242;8.670;2023-08-17T04:59:26;4.57;;;2.92;;
47764;SDS011;33529;49.242;8.670;2023-08-17T05:01:52;5.82;;;3.67;;
47764;SDS011;33529;49.242;8.670;2023-08-17T05:04:20;4.93;;;3.42;;
47764;SDS011;33529;49.242;8.670;2023-08-17T05:06:47;4.90;;;4.00;;
47764;SDS011;33529;49.242;8.670;2023-08-17T05:09:14;5.68;;;3.45;;
47764;SDS011;33529;49.242;8.670;2023-08-17T05:11:41;5.85;;;2.88;;
47764;SDS011;33529;49.242;8.670;2023-08-17T05:14:09;4.40;;;3.22;;
47764;SDS011;33529;49.242;8.670;2023-08-17T05:16:36;3.90;;;3.20;;
47764;SDS011;33529;49.242;8.670;2023-08-17T05:19:04;4.65;;;3.03;;
47764;SDS011;33529;49.242;8.670;2023-08-17T05:21:31;4.88;;;3.00;;
47764;SDS011;33529;49.242;8.670;2023-08-17T05:23:58;4.28;;;2.85;;
47764;SDS011;33529;49.242;8.670;2023-08-17T05:26:25;5.35;;;3.17;;
47764;SDS011;33529;49.242;8.670;2023-08-17T05:28:52;5.53;;;3.10;;
47764;SDS011;33529;49.242;8.670;2023-08-17T05:31:19;7.45;;;3.08;;
47764;SDS011;33529;49.242;8.670;2023-08-17T05:33:47;5.10;;;2.78;;
47764;SDS011;33529;49.242;8.670;2023-08-17T05:36:15;8.88;;;3.53;;
47764;SDS011;33529;49.242;8.670;2023-08-17T05:38:42;5.38;;;3.28;;
47764;SDS011;33529;49.242;8.670;2023-08-17T05:41:08;4.85;;;3.45;;
47764;SDS011;33529;49.242;8.670;2023-08-17T05:43:35;4.43;;;3.20;;
47764;SDS011;33529;49.242;8.670;2023-08-17T05:46:02;6.15;;;3.90;;
47764;SDS011;33529;49.242;8.670;2023-08-17T05:48:29;5.60;;;3.90;;
47764;SDS011;33529;49.242;8.670;2023-08-17T05:50:56;7.88;;;3.70;;
47764;SDS011;33529;49.242;8.670;2023-08-17T05:53:23;4.43;;;3.15;;
47764;SDS011;33529;49.242;8.670;2023-08-17T05:55:50;5.30;;;3.50;;
47764;SDS011;33529;49.242;8.670;2023-08-17T05:58:17;5.20;;;3.30;;
47764;SDS011;33529;49.242;8.670;2023-08-17T06:00:44;6.40;;;3.70;;
47764;SDS011;33529;49.242;8.670;2023-08-17T06:03:11;4.38;;;2.80;;
47764;SDS011;33529;49.242;8.670;2023-08-17T06:05:39;3.63;;;2.88;;
47764;SDS011;33529;49.242;8.670;2023-08-17T06:08:06;4.45;;;2.47;;
47764;SDS011;33529;49.242;8.670;2023-08-17T06:10:33;4.55;;;3.30;;
47764;SDS011;33529;49.242;8.670;2023-08-17T06:12:59;5.20;;;3.42;;
47764;SDS011;33529;49.242;8.670;2023-08-17T06:15:26;7.07;;;3.08;;
47764;SDS011;33529;49.242;8.670;2023-08-17T06:17:53;5.60;;;3.08;;
47764;SDS011;33529;49.242;8.670;2023-08-17T06:20:20;5.75;;;3.30;;
47764;SDS011;33529;49.242;8.670;2023-08-17T06:22:48;4.53;;;3.33;;
47764;SDS011;33529;49.242;8.670;2023-08-17T06:25:15;4.63;;;3.33;;
47764;SDS011;33529;49.242;8.670;2023-08-17T06:27:42;5.40;;;3.05;;
47764;SDS011;33529;49.242;8.670;2023-08-17T06:30:10;5.95;;;3.83;;
47764;SDS011;33529;49.242;8.670;2023-08-17T06:32:40;5.63;;;2.78;;
47764;SDS011;33529;49.242;8.670;2023-08-17T06:35:07;6.85;;;3.20;;
47764;SDS011;33529;49.242;8.670;2023-08-17T06:37:34;6.10;;;3.10;;
47764;SDS011;33529;49.242;8.670;2023-08-17T06:40:05;7.05;;;3.70;;
47764;SDS011;33529;49.242;8.670;2023-08-17T06:42:32;7.28;;;4.10;;
47764;SDS011;33529;49.242;8.670;2023-08-17T06:44:59;5.63;;;3.47;;
47764;SDS011;33529;49.242;8.670;2023-08-17T06:47:26;8.40;;;4.28;;
47764;SDS011;33529;49.242;8.670;2023-08-17T06:49:54;6.28;;;4.25;;
47764;SDS011;33529;49.242;8.670;2023-08-17T06:52:21;5.82;;;4.05;;
47764;SDS011;33529;49.242;8.670;2023-08-17T06:54:48;6.18;;;4.53;;
47764;SDS011;33529;49.242;8.670;2023-08-17T06:57:14;8.52;;;4.00;;
47764;SDS011;33529;49.242;8.670;2023-08-17T06:59:41;6.95;;;4.82;;
47764;SDS011;33529;49.242;8.670;2023-08-17T07:02:12;6.20;;;4.00;;
47764;SDS011;33529;49.242;8.670;2023-08-17T07:04:38;6.55;;;4.13;;
47764;SDS011;33529;49.242;8.670;2023-08-17T07:07:05;6.97;;;4.70;;
47764;SDS011;33529;49.242;8.670;2023-08-17T07:09:32;9.88;;;4.90;;
47764;SDS011;33529;49.242;8.670;2023-08-17T07:11:59;6.05;;;4.47;;
47764;SDS011;33529;49.242;8.670;2023-08-17T07:14:26;6.65;;;5.18;;
47764;SDS011;33529;49.242;8.670;2023-08-17T07:16:54;7.00;;;5.15;;
47764;SDS011;33529;49.242;8.670;2023-08-17T07:19:21;7.53;;;5.40;;
47764;SDS011;33529;49.242;8.670;2023-08-17T07:22:08;7.85;;;5.18;;
47764;SDS011;33529;49.242;8.670;2023-08-17T07:24:35;6.47;;;4.88;;
47764;SDS011;33529;49.242;8.670;2023-08-17T07:27:02;9.13;;;6.43;;
47764;SDS011;33529;49.242;8.670;2023-08-17T07:29:29;7.80;;;5.35;;
47764;SDS011;33529;49.242;8.670;2023-08-17T07:31:56;6.68;;;4.25;;
47764;SDS011;33529;49.242;8.670;2023-08-17T07:34:28;7.97;;;4.93;;
47764;SDS011;33529;49.242;8.670;2023-08-17T07:36:57;9.15;;;5.50;;
47764;SDS011;33529;49.242;8.670;2023-08-17T07:39:24;15.15;;;9.75;;
47764;SDS011;33529;49.242;8.670;2023-08-17T07:41:51;12.10;;;9.30;;
47764;SDS011;33529;49.242;8.670;2023-08-17T07:44:18;12.75;;;9.48;;
47764;SDS011;33529;49.242;8.670;2023-08-17T07:46:45;12.98;;;10.02;;
47764;SDS011;33529;49.242;8.670;2023-08-17T07:49:12;13.13;;;9.38;;
47764;SDS011;33529;49.242;8.670;2023-08-17T07:51:51;11.57;;;9.27;;
47764;SDS011;33529;49.242;8.670;2023-08-17T07:54:18;15.07;;;10.60;;
47764;SDS011;33529;49.242;8.670;2023-08-17T07:56:45;19.30;;;13.55;;
47764;SDS011;33529;49.242;8.670;2023-08-17T07:59:12;17.85;;;14.30;;
47764;SDS011;33529;49.242;8.670;2023-08-17T08:01:39;23.80;;;16.70;;
47764;SDS011;33529;49.242;8.670;2023-08-17T08:04:06;16.98;;;15.18;;
47764;SDS011;33529;49.242;8.670;2023-08-17T08:06:33;26.17;;;19.42;;
47764;SDS011;33529;49.242;8.670;2023-08-17T08:09:00;25.73;;;20.92;;
47764;SDS011;33529;49.242;8.670;2023-08-17T08:11:26;28.38;;;23.25;;
47764;SDS011;33529;49.242;8.670;2023-08-17T08:13:54;27.58;;;22.05;;
47764;SDS011;33529;49.242;8.670;2023-08-17T08:16:20;24.73;;;19.65;;
47764;SDS011;33529;49.242;8.670;2023-08-17T08:18:47;24.80;;;17.70;;
47764;SDS011;33529;49.242;8.670;2023-08-17T08:21:15;22.70;;;17.40;;
47764;SDS011;33529;49.242;8.670;2023-08-17T08:23:41;21.17;;;18.63;;
47764;SDS011;33529;49.242;8.670;2023-08-17T08:26:08;21.48;;;16.55;;
47764;SDS011;33529;49.242;8.670;2023-08-17T08:28:35;15.82;;;13.93;;
47764;SDS011;33529;49.242;8.670;2023-08-17T08:31:02;17.70;;;14.13;;
47764;SDS011;33529;49.242;8.670;2023-08-17T08:33:30;16.50;;;13.05;;
47764;SDS011;33529;49.242;8.670;2023-08-17T08:35:57;17.77;;;13.98;;
47764;SDS011;33529;49.242;8.670;2023-08-17T08:38:30;15.48;;;13.30;;
47764;SDS011;33529;49.242;8.670;2023-08-17T08:41:42;15.45;;;12.32;;
47764;SDS011;33529;49.242;8.670;2023-08-17T08:44:56;14.02;;;10.80;;
47764;SDS011;33529;49.242;8.670;2023-08-17T08:47:31;16.08;;;13.25;;
47764;SDS011;33529;49.242;8.670;2023-08-17T08:50:02;9.63;;;8.63;;
47764;SDS011;33529;49.242;8.670;2023-08-17T08:55:11;9.88;;;8.07;;
47764;SDS011;33529;49.242;8.670;2023-08-17T08:57:41;8.88;;;7.45;;
47764;SDS011;33529;49.242;8.670;2023-08-17T09:00:11;11.73;;;7.70;;
47764;SDS011;33529;49.242;8.670;2023-08-17T09:02:39;8.57;;;7.68;;
47764;SDS011;33529;49.242;8.670;2023-08-17T09:05:06;9.98;;;8.07;;
47764;SDS011;33529;49.242;8.670;2023-08-17T09:07:36;12.05;;;10.32;;
47764;SDS011;33529;49.242;8.670;2023-08-17T09:10:04;9.85;;;8.85;;
47764;SDS011;33529;49.242;8.670;2023-08-17T09:12:31;11.20;;;7.97;;
47764;SDS011;33529;49.242;8.670;2023-08-17T09:15:06;8.93;;;8.02;;
47764;SDS011;33529;49.242;8.670;2023-08-17T09:17:33;10.57;;;9.00;;
47764;SDS011;33529;49.242;8.670;2023-08-17T09:20:01;11.63;;;8.98;;
47764;SDS011;33529;49.242;8.670;2023-08-17T09:22:38;12.63;;;10.68;;
47764;SDS011;33529;49.242;8.670;2023-08-17T09:25:06;10.88;;;8.80;;
47764;SDS011;33529;49.242;8.670;2023-08-17T09:27:38;11.43;;;10.00;;
47764;SDS011;33529;49.242;8.670;2023-08-17T09:30:06;8.80;;;7.90;;
47764;SDS011;33529;49.242;8.670;2023-08-17T09:32:35;12.82;;;9.65;;
47764;SDS011;33529;49.242;8.670;2023-08-17T09:35:02;9.43;;;7.82;;
47764;SDS011;33529;49.242;8.670;2023-08-17T09:37:32;10.93;;;6.40;;
47764;SDS011;33529;49.242;8.670;2023-08-17T09:39:59;11.00;;;6.78;;
47764;SDS011;33529;49.242;8.670;2023-08-17T09:42:26;8.88;;;7.03;;
47764;SDS011;33529;49.242;8.670;2023-08-17T09:44:54;8.13;;;6.72;;
47764;SDS011;33529;49.242;8.670;2023-08-17T09:47:24;8.15;;;6.78;;
47764;SDS011;33529;49.242;8.670;2023-08-17T09:49:54;9.52;;;8.05;;
47764;SDS011;33529;49.242;8.670;2023-08-17T09:52:21;8.52;;;7.63;;
47764;SDS011;33529;49.242;8.670;2023-08-17T09:54:51;9.23;;;7.40;;
47764;SDS011;33529;49.242;8.670;2023-08-17T09:57:20;10.07;;;8.30;;
47764;SDS011;33529;49.242;8.670;2023-08-17T09:59:48;9.68;;;7.85;;
47764;SDS011;33529;49.242;8.670;2023-08-17T10:02:22;8.98;;;7.95;;
47764;SDS011;33529;49.242;8.670;2023-08-17T10:04:54;8.77;;;7.53;;
47764;SDS011;33529;49.242;8.670;2023-08-17T10:07:26;8.43;;;6.78;;
47764;SDS011;33529;49.242;8.670;2023-08-17T10:10:03;8.55;;;6.57;;
47764;SDS011;33529;49.242;8.670;2023-08-17T10:15:21;8.75;;;6.10;;
47764;SDS011;33529;49.242;8.670;2023-08-17T10:18:07;7.47;;;5.97;;
47764;SDS011;33529;49.242;8.670;2023-08-17T10:20:42;7.15;;;5.82;;
47764;SDS011;33529;49.242;8.670;2023-08-17T10:23:16;11.00;;;5.53;;
47764;SDS011;33529;49.242;8.670;2023-08-17T10:25:45;8.43;;;6.07;;
47764;SDS011;33529;49.242;8.670;2023-08-17T10:28:16;9.80;;;6.25;;
47764;SDS011;33529;49.242;8.670;2023-08-17T10:30:44;8.73;;;5.50;;
47764;SDS011;33529;49.242;8.670;2023-08-17T10:33:11;7.85;;;5.68;;
47764;SDS011;33529;49.242;8.670;2023-08-17T10:35:38;7.13;;;6.18;;
47764;SDS011;33529;49.242;8.670;2023-08-17T10:38:06;7.50;;;5.80;;
47764;SDS011;33529;49.242;8.670;2023-08-17T10:40:37;5.40;;;4.60;;
47764;SDS011;33529;49.242;8.670;2023-08-17T10:43:06;6.15;;;5.32;;
47764;SDS011;33529;49.242;8.670;2023-08-17T10:45:34;6.43;;;5.05;;
47764;SDS011;33529;49.242;8.670;2023-08-17T10:50:31;6.00;;;4.90;;
47764;SDS011;33529;49.242;8.670;2023-08-17T10:53:03;7.80;;;6.10;;
47764;SDS011;33529;49.242;8.670;2023-08-17T10:55:39;6.63;;;5.65;;
47764;SDS011;33529;49.242;8.670;2023-08-17T10:58:18;9.93;;;5.68;;
47764;SDS011;33529;49.242;8.670;2023-08-17T11:00:45;6.15;;;5.20;;
47764;SDS011;33529;49.242;8.670;2023-08-17T11:03:19;5.80;;;5.00;;
47764;SDS011;33529;49.242;8.670;2023-08-17T11:05:47;6.70;;;5.60;;
47764;SDS011;33529;49.242;8.670;2023-08-17T11:08:19;6.20;;;5.25;;
47764;SDS011;33529;49.242;8.670;2023-08-17T11:10:58;5.97;;;5.20;;
47764;SDS011;33529;49.242;8.670;2023-08-17T11:13:30;6.68;;;4.70;;
47764;SDS011;33529;49.242;8.670;2023-08-17T11:16:02;7.22;;;5.90;;
47764;SDS011;33529;49.242;8.670;2023-08-17T11:18:31;6.47;;;5.65;;
47764;SDS011;33529;49.242;8.670;2023-08-17T11:20:59;8.88;;;5.47;;
47764;SDS011;33529;49.242;8.670;2023-08-17T11:23:28;6.47;;;5.78;;
47764;SDS011;33529;49.242;8.670;2023-08-17T11:25:56;6.78;;;4.93;;
47764;SDS011;33529;49.242;8.670;2023-08-17T11:28:23;14.73;;;6.25;;
47764;SDS011;33529;49.242;8.670;2023-08-17T11:31:00;5.65;;;5.13;;
47764;SDS011;33529;49.242;8.670;2023-08-17T11:33:30;6.55;;;5.30;;
47764;SDS011;33529;49.242;8.670;2023-08-17T11:35:58;6.25;;;5.05;;
47764;SDS011;33529;49.242;8.670;2023-08-17T11:38:30;6.63;;;5.28;;
47764;SDS011;33529;49.242;8.670;2023-08-17T11:40:58;8.70;;;5.78;;
47764;SDS011;33529;49.242;8.670;2023-08-17T11:43:29;7.18;;;5.85;;
47764;SDS011;33529;49.242;8.670;2023-08-17T11:45:56;6.78;;;5.43;;
47764;SDS011;33529;49.242;8.670;2023-08-17T11:48:24;8.07;;;6.00;;
47764;SDS011;33529;49.242;8.670;2023-08-17T11:50:52;7.70;;;5.72;;
47764;SDS011;33529;49.242;8.670;2023-08-17T11:53:19;5.88;;;5.22;;
47764;SDS011;33529;49.242;8.670;2023-08-17T11:55:46;7.93;;;5.65;;
47764;SDS011;33529;49.242;8.670;2023-08-17T11:58:13;7.80;;;6.15;;
47764;SDS011;33529;49.242;8.670;2023-08-17T12:00:41;10.60;;;7.32;;
47764;SDS011;33529;49.242;8.670;2023-08-17T12:03:13;10.88;;;8.30;;
47764;SDS011;33529;49.242;8.670;2023-08-17T12:05:43;11.00;;;8.82;;
47764;SDS011;33529;49.242;8.670;2023-08-17T12:08:12;10.13;;;8.68;;
47764;SDS011;33529;49.242;8.670;2023-08-17T12:10:41;10.93;;;8.75;;
47764;SDS011;33529;49.242;8.670;2023-08-17T12:13:11;8.60;;;7.70;;
47764;SDS011;33529;49.242;8.670;2023-08-17T12:15:39;11.57;;;8.98;;
47764;SDS011;33529;49.242;8.670;2023-08-17T12:18:06;10.70;;;9.60;;
47764;SDS011;33529;49.242;8.670;2023-08-17T12:20:33;11.95;;;9.98;;
47764;SDS011;33529;49.242;8.670;2023-08-17T12:23:03;11.40;;;10.23;;
47764;SDS011;33529;49.242;8.670;2023-08-17T12:25:33;11.63;;;9.73;;
47764;SDS011;33529;49.242;8.670;2023-08-17T12:28:00;12.95;;;9.60;;
47764;SDS011;33529;49.242;8.670;2023-08-17T12:30:28;11.07;;;9.98;;
47764;SDS011;33529;49.242;8.670;2023-08-17T12:32:58;11.03;;;9.80;;
47764;SDS011;33529;49.242;8.670;2023-08-17T12:35:25;12.25;;;10.73;;
47764;SDS011;33529;49.242;8.670;2023-08-17T12:37:53;13.57;;;10.23;;
47764;SDS011;33529;49.242;8.670;2023-08-17T12:40:21;12.75;;;10.57;;
47764;SDS011;33529;49.242;8.670;2023-08-17T12:42:48;12.48;;;9.77;;
47764;SDS011;33529;49.242;8.670;2023-08-17T12:45:16;11.80;;;10.57;;
47764;SDS011;33529;49.242;8.670;2023-08-17T12:47:43;11.02;;;9.88;;
47764;SDS011;33529;49.242;8.670;2023-08-17T12:50:09;11.57;;;10.38;;
47764;SDS011;33529;49.242;8.670;2023-08-17T12:52:36;12.52;;;9.65;;
47764;SDS011;33529;49.242;8.670;2023-08-17T12:55:03;10.52;;;9.43;;
47764;SDS011;33529;49.242;8.670;2023-08-17T12:57:30;12.18;;;10.77;;
47764;SDS011;33529;49.242;8.670;2023-08-17T12:59:57;11.93;;;10.73;;
47764;SDS011;33529;49.242;8.670;2023-08-17T13:02:24;14.55;;;11.50;;
47764;SDS011;33529;49.242;8.670;2023-08-17T13:04:51;11.77;;;10.55;;
47764;SDS011;33529;49.242;8.670;2023-08-17T13:07:18;10.57;;;9.25;;
47764;SDS011;33529;49.242;8.670;2023-08-17T13:09:45;10.13;;;8.88;;
47764;SDS011;33529;49.242;8.670;2023-08-17T13:12:13;9.30;;;8.40;;
47764;SDS011;33529;49.242;8.670;2023-08-17T13:14:39;10.18;;;9.18;;
47764;SDS011;33529;49.242;8.670;2023-08-17T13:17:06;9.52;;;7.85;;
47764;SDS011;33529;49.242;8.670;2023-08-17T13:19:33;10.50;;;8.90;;
47764;SDS011;33529;49.242;8.670;2023-08-17T13:22:00;10.07;;;8.98;;
47764;SDS011;33529;49.242;8.670;2023-08-17T13:24:29;9.38;;;8.43;;
47764;SDS011;33529;49.242;8.670;2023-08-17T13:26:56;8.93;;;7.97;;
47764;SDS011;33529;49.242;8.670;2023-08-17T13:29:23;13.63;;;9.50;;
47764;SDS011;33529;49.242;8.670;2023-08-17T13:31:50;9.02;;;7.22;;
47764;SDS011;33529;49.242;8.670;2023-08-17T13:34:17;9.90;;;7.72;;
47764;SDS011;33529;49.242;8.670;2023-08-17T13:36:44;8.18;;;7.38;;
47764;SDS011;33529;49.242;8.670;2023-08-17T13:39:11;9.85;;;7.57;;
47764;SDS011;33529;49.242;8.670;2023-08-17T13:41:38;8.60;;;7.63;;
47764;SDS011;33529;49.242;8.670;2023-08-17T13:44:06;8.80;;;7.50;;
47764;SDS011;33529;49.242;8.670;2023-08-17T13:46:33;9.10;;;8.27;;
47764;SDS011;33529;49.242;8.670;2023-08-17T13:49:00;9.68;;;7.60;;
47764;SDS011;33529;49.242;8.670;2023-08-17T13:51:27;10.13;;;7.20;;
47764;SDS011;33529;49.242;8.670;2023-08-17T13:53:54;9.75;;;7.13;;
47764;SDS011;33529;49.242;8.670;2023-08-17T13:56:20;10.50;;;6.68;;
47764;SDS011;33529;49.242;8.670;2023-08-17T13:58:47;7.72;;;6.90;;
47764;SDS011;33529;49.242;8.670;2023-08-17T14:01:14;8.23;;;5.78;;
47764;SDS011;33529;49.242;8.670;2023-08-17T14:03:41;7.60;;;6.78;;
47764;SDS011;33529;49.242;8.670;2023-08-17T14:06:09;8.35;;;6.75;;
47764;SDS011;33529;49.242;8.670;2023-08-17T14:08:36;7.60;;;6.53;;
47764;SDS011;33529;49.242;8.670;2023-08-17T14:11:03;8.55;;;7.60;;
47764;SDS011;33529;49.242;8.670;2023-08-17T14:13:30;7.15;;;6.32;;
47764;SDS011;33529;49.242;8.670;2023-08-17T14:15:57;7.85;;;5.97;;
47764;SDS011;33529;49.242;8.670;2023-08-17T14:18:25;6.65;;;5.63;;
47764;SDS011;33529;49.242;8.670;2023-08-17T14:20:52;8.13;;;5.85;;
47764;SDS011;33529;49.242;8.670;2023-08-17T14:23:19;6.13;;;5.50;;
47764;SDS011;33529;49.242;8.670;2023-08-17T14:25:46;7.35;;;6.05;;
47764;SDS011;33529;49.242;8.670;2023-08-17T14:28:13;6.38;;;5.72;;
47764;SDS011;33529;49.242;8.670;2023-08-17T14:30:39;6.85;;;5.95;;
47764;SDS011;33529;49.242;8.670;2023-08-17T14:33:06;6.65;;;5.97;;
47764;SDS011;33529;49.242;8.670;2023-08-17T14:35:33;7.25;;;5.88;;
47764;SDS011;33529;49.242;8.670;2023-08-17T14:38:00;7.05;;;5.68;;
47764;SDS011;33529;49.242;8.670;2023-08-17T14:40:27;7.80;;;5.75;;
47764;SDS011;33529;49.242;8.670;2023-08-17T14:42:54;6.43;;;5.15;;
47764;SDS011;33529;49.242;8.670;2023-08-17T14:45:21;6.70;;;5.57;;
47764;SDS011;33529;49.242;8.670;2023-08-17T14:47:48;7.13;;;5.43;;
47764;SDS011;33529;49.242;8.670;2023-08-17T14:50:15;7.90;;;5.40;;
47764;SDS011;33529;49.242;8.670;2023-08-17T14:52:42;5.40;;;4.63;;
47764;SDS011;33529;49.242;8.670;2023-08-17T14:55:09;5.95;;;5.35;;
47764;SDS011;33529;49.242;8.670;2023-08-17T14:57:35;7.70;;;5.47;;
47764;SDS011;33529;49.242;8.670;2023-08-17T15:00:02;7.22;;;5.22;;
47764;SDS011;33529;49.242;8.670;2023-08-17T15:02:30;6.72;;;4.85;;